Latest Coastal Weather Observations for Flinders Island Airport

IDT60701

Issued at 7:32 am EST Thursday 27 April 2017 (issued every 10 minutes, with the page automatically refreshed every 10 minutes)

About coastal observations | Map of coastal stations | Coastal observations for TAS | Marine services | Other Formats
Station Details ID: 099005 Name: FLINDERS ISLAND AIRPORT Lat: -40.09 Lon: 148.00 Height: 9.0 m
Data from the previous 72 hours. | See also: Recent months at Flinders Island Airport
Date/Time
EST
Temp
°C
Wind Pressure Rain since
9am
mm
Weather Cloud Vis
km
Sea
Height
m
Swell
Dir  Spd
kts
Gust
kts
hPa Trend Height
m
Period
s
Dir
27/07:30am 4.5 E 5 6 1018.7 - 6.6 - - 10 - - - -
27/07:00am 3.7 SE 5 7 1018.6 - 6.6 - - 10 - - - -
27/06:30am 7.6 SSE 5 7 1018.4 - 6.6 - - 10 - - - -
27/06:00am 8.2 SSE 5 7 1018.0 - 6.6 - - 10 - - - -
27/05:30am 8.7 SSE 6 10 1017.7 - 6.6 - - 10 - - - -
27/05:00am 9.0 SE 5 9 1017.2 - 6.6 - - 10 - - - -
27/04:30am 9.5 SSE 7 11 1016.7 - 6.6 - - 10 - - - -
27/04:00am 9.2 S 5 10 1016.7 - 6.6 - - 10 - - - -
27/03:30am 9.8 SE 5 11 1016.6 - 6.6 - Partly cloudy 10 - - - -
27/03:00am 9.4 SE 5 9 1016.7 - 6.6 - Partly cloudy 10 - - - -
27/02:30am 9.1 SE 7 16 1016.7 - 6.6 - Partly cloudy 10 - - - -
27/02:00am 8.8 S 12 19 1016.7 - 6.6 - - 10 - - - -
27/01:30am 8.0 S 15 22 1016.3 - 6.6 - - 10 - - - -
27/01:00am 7.5 SE 6 17 1016.1 - 6.6 - - 10 - - - -
27/12:30am 8.4 ESE 4 9 1015.9 - 6.6 - - 10 - - - -
27/12:00am 9.0 ESE 7 14 1015.8 - 6.6 - - 10 - - - -
 
Date/Time
EST
Temp
°C
Wind Pressure Rain since
9am
mm
Weather Cloud Vis
km
Sea
Height
m
Swell
Dir  Spd
kts
Gust
kts
hPa Trend Height
m
Period
s
Dir
26/11:30pm 8.5 SE 5 10 1015.6 - 6.6 - - 10 - - - -
26/11:00pm 7.2 SE 8 15 1015.4 - 6.6 - - 10 - - - -
26/10:30pm 7.6 ESE 5 11 1015.1 - 6.6 - - 10 - - - -
26/10:00pm 5.7 ESE 5 7 1014.7 - 6.6 - - 10 - - - -
26/09:30pm 5.0 ENE 5 6 1014.5 - 6.6 - - 10 - - - -
26/09:00pm 5.2 NE 5 6 1014.1 - 6.6 - - 10 - - - -
26/08:30pm 5.5 ENE 7 7 1013.7 - 6.6 - Partly cloudy 10 - - - -
26/08:00pm 6.9 NE 5 6 1013.4 - 6.6 - Partly cloudy 10 - - - -
26/07:30pm 7.6 ENE 7 8 1013.0 - 6.6 - Partly cloudy 10 - - - -
26/07:00pm 7.9 E 5 7 1012.8 - 6.6 - Partly cloudy 10 - - - -
26/06:30pm 8.4 ESE 4 6 1012.1 - 6.6 - Partly cloudy 10 - - - -
26/06:00pm 8.7 SE 5 7 1011.4 - 6.6 - Cloudy 10 - - - -
26/05:30pm 9.4 E 5 7 1010.9 - 6.6 - Partly cloudy 10 - - - -
26/05:00pm 9.7 E 4 5 1010.5 - 6.6 - Partly cloudy 10 - - - -
26/04:30pm 9.8 SE 4 6 1010.0 - 6.0 - Partly cloudy 10 - - - -
26/04:00pm 10.0 ENE 5 7 1009.7 - 5.8 - Partly cloudy 10 - - - -
26/03:30pm 10.5 SE 7 11 1009.2 - 5.4 - Partly cloudy 10 - - - -
26/03:00pm 10.1 ESE 6 9 1008.8 - 5.4 Recent precip. Cloudy 10 - - - -
26/02:30pm 9.7 SE 7 10 1008.5 - 5.4 - Partly cloudy 10 - - - -
26/02:00pm 9.7 SSE 12 19 1007.9 - 5.0 - Partly cloudy 10 - - - -
26/01:30pm 10.7 S 14 22 1007.4 - 4.6 - Partly cloudy 10 - - - -
26/01:00pm 10.8 SSE 13 21 1006.8 - 4.6 - Partly cloudy 10 - - - -
26/12:30pm 11.3 S 14 23 1006.3 - 4.6 - Cloudy 10 - - - -
26/12:00pm 11.2 SSE 11 19 1005.8 - 4.6 Recent precip. Cloudy 10 - - - -
26/11:30am 11.5 S 16 23 1005.5 - 4.6 - Partly cloudy 10 - - - -
26/11:11am 11.7 S 15 24 1005.1 - 4.4 - Partly cloudy 9 - - - -
26/11:00am 11.8 S 14 21 1004.7 - 4.4 - Partly cloudy 5 - - - -
26/10:32am 11.9 S 18 26 1004.2 - 3.2 - Partly cloudy 5 - - - -
26/10:30am 12.1 S 18 26 1004.1 - 2.8 - Partly cloudy 8 - - - -
26/10:00am 13.3 S 13 18 1003.5 - 2.4 - Partly cloudy 10 - - - -
26/09:30am 12.8 S 13 18 1003.1 - 2.4 - Partly cloudy 10 - - - -
26/09:26am 12.7 S 14 19 1003.0 - 2.4 - Partly cloudy 10 - - - -
26/09:12am 12.3 S 16 21 1003.0 - 2.2 - Partly cloudy 2 - - - -
26/09:07am 12.5 SW 14 21 1002.8 - 0.8 - Partly cloudy 4 - - - -
26/09:00am 13.8 SW 10 18 1002.7 - 9.8 - Cloudy 10 - - - -
26/08:30am 13.4 SW 10 13 1002.1 - 9.8 - Partly cloudy 10 - - - -
26/08:00am 13.1 WSW 8 11 1001.9 - 9.8 - Partly cloudy 10 - - - -
26/07:51am 12.8 WSW 10 13 1001.8 - 9.8 - Partly cloudy 10 - - - -
26/07:35am 12.2 WSW 13 17 1001.8 - 9.6 - Partly cloudy 5 - - - -
26/07:30am 12.5 W 13 18 1001.7 - 9.2 - Partly cloudy 10 - - - -
26/07:28am 12.4 W 11 18 1001.6 - 9.2 - Partly cloudy 10 - - - -
26/07:00am 10.7 ENE 5 6 1001.2 - 8.8 - Partly cloudy 10 - - - -
26/06:30am 10.0 ENE 6 7 1000.7 - 8.8 - Partly cloudy 10 - - - -
26/06:00am 10.7 NNE 1 4 1000.2 - 8.8 - Mostly cloudy 10 - - - -
26/05:30am 11.5 WSW 3 5 1000.2 - 8.8 - Partly cloudy 10 - - - -
26/05:09am 12.7 SW 8 11 999.9 - 8.8 - Partly cloudy 10 - - - -
26/05:00am 13.0 WSW 11 17 1000.0 - 8.8 - Partly cloudy 10 - - - -
26/04:51am 13.3 WSW 14 18 1000.1 - 8.8 - Partly cloudy 10 - - - -
26/04:30am 13.1 WNW 16 25 1000.1 - 8.8 - Partly cloudy 7 - - - -
26/04:22am 13.3 WNW 15 25 1000.1 - 8.8 - Partly cloudy 8 - - - -
26/04:00am 13.5 WNW 10 15 999.9 - 8.6 - Partly cloudy 10 - - - -
26/03:30am 13.3 NNW 5 7 1000.0 - 8.6 - Partly cloudy 10 - - - -
26/03:11am 13.3 NNW 6 9 1000.2 - 8.6 - Partly cloudy 10 - - - -
26/03:00am 13.3 NNW 7 10 1000.4 - 8.6 Recent precip. Cloudy 10 - - - -
26/02:58am 13.3 NNW 8 11 1000.4 - 8.6 - Partly cloudy 10 - - - -
26/02:41am 13.2 NNW 4 6 1000.4 - 8.4 - Partly cloudy 5 - - - -
26/02:32am 13.1 WNW 5 8 1000.6 - 8.4 - Partly cloudy 7 - - - -
26/02:30am 13.2 NW 5 8 1000.7 - 8.2 - Partly cloudy 7 - - - -
26/02:09am 13.0 WNW 11 16 1001.2 - 7.6 - Partly cloudy 4 - - - -
26/02:00am 12.9 WNW 17 27 1001.1 - 6.2 - Partly cloudy 1 - - - -
26/01:52am 13.8 WNW 13 27 1001.1 - 2.0 - Partly cloudy 5 - - - -
26/01:50am 14.5 WNW 10 24 1001.2 - 1.4 - Partly cloudy 5 - - - -
26/01:30am 15.1 NNW 7 11 1000.8 - 0.8 - Cloudy 10 - - - -
26/01:00am 14.8 NNW 8 12 1001.1 - 0.8 - Partly cloudy 10 - - - -
26/12:30am 14.2 WNW 10 15 1001.3 - 0.8 - Partly cloudy 10 - - - -
26/12:00am 14.7 WNW 11 16 1001.4 - 0.8 - Mostly clear 10 - - - -
 
Date/Time
EST
Temp
°C
Wind Pressure Rain since
9am
mm
Weather Cloud Vis
km
Sea
Height
m
Swell
Dir  Spd
kts
Gust
kts
hPa Trend Height
m
Period
s
Dir
25/11:30pm 14.8 WNW 11 15 1001.6 - 0.8 - - 10 - - - -
25/11:00pm 15.2 WNW 15 19 1001.8 - 0.8 - - 10 - - - -
25/10:30pm 15.1 WNW 15 19 1002.0 - 0.8 - Partly cloudy 10 - - - -
25/10:00pm 15.0 W 14 18 1002.4 - 0.8 - Partly cloudy 10 - - - -
25/09:30pm 15.3 W 18 25 1002.7 - 0.8 - Partly cloudy 10 - - - -
25/09:00pm 15.4 W 19 26 1002.8 - 0.8 - - 10 - - - -
25/08:30pm 15.9 W 18 23 1002.7 - 0.8 - Partly cloudy 10 - - - -
25/08:00pm 15.7 W 19 25 1002.9 - 0.8 - Partly cloudy 10 - - - -
25/07:30pm 15.8 W 18 21 1002.9 - 0.8 - Partly cloudy 10 - - - -
25/07:00pm 15.9 W 19 24 1002.8 - 0.8 - Partly cloudy 10 - - - -
25/06:30pm 15.5 W 23 28 1002.8 - 0.8 - Partly cloudy 10 - - - -
25/06:00pm 15.5 W 23 27 1002.5 - 0.8 - - 10 - - - -
25/05:30pm 15.6 W 23 28 1002.4 - 0.8 - Partly cloudy 10 - - - -
25/05:00pm 15.8 W 21 26 1002.4 - 0.8 - Partly cloudy 10 - - - -
25/04:30pm 16.4 W 20 25 1002.2 - 0.8 - Partly cloudy 10 - - - -
25/04:00pm 16.6 WSW 19 23 1002.2 - 0.8 - Partly cloudy 10 - - - -
25/03:30pm 16.8 W 18 21 1002.3 - 0.8 - Partly cloudy 10 - - - -
25/03:00pm 16.8 WSW 17 21 1002.1 - 0.8 - Cloudy 10 - - - -
25/02:55pm 16.9 WSW 16 20 1002.2 - 0.8 - Partly cloudy 10 - - - -
25/02:30pm 16.4 WSW 17 19 1002.1 - 0.8 - Partly cloudy 10 - - - -
25/02:16pm 16.2 WSW 16 19 1002.1 - 0.8 - Partly cloudy 10 - - - -
25/02:13pm 16.4 WSW 16 19 1002.0 - 0.8 - Partly cloudy 10 - - - -
25/02:00pm 16.2 WSW 18 21 1002.0 - 0.8 - Partly cloudy 10 - - - -
25/01:56pm 16.5 WSW 18 22 1002.1 - 0.8 - Partly cloudy 10 - - - -
25/01:30pm 17.6 W 16 18 1002.1 - 0.8 - Partly cloudy 10 - - - -
25/01:00pm 17.2 W 14 17 1002.5 - 0.8 - Partly cloudy 10 - - - -
25/12:30pm 17.0 W 13 15 1002.6 - 0.8 - Partly cloudy 10 - - - -
25/12:22pm 17.6 WSW 13 15 1002.7 - 0.8 - Partly cloudy 10 - - - -
25/12:00pm 16.3 SW 11 14 1003.1 - 0.8 - Cloudy 10 - - - -
25/11:30am 16.1 SW 11 14 1003.4 - 0.8 - Cloudy 10 - - - -
25/11:00am 16.2 SW 16 20 1003.6 - 0.8 - Partly cloudy 10 - - - -
25/10:52am 16.1 WSW 19 22 1003.6 - 0.8 - Partly cloudy 9 - - - -
25/10:30am 16.5 WNW 18 23 1003.6 - 0.6 - Partly cloudy 10 - - - -
25/10:00am 16.2 WNW 15 23 1003.4 - 0.6 - Partly cloudy 10 - - - -
25/09:53am 16.4 NW 14 23 1003.5 - 0.6 - Partly cloudy 10 - - - -
25/09:30am 16.8 NNW 7 10 1003.8 - 0.4 - Partly cloudy 10 - - - -
25/09:29am 16.8 NNW 7 10 1003.9 - 0.4 - Partly cloudy 10 - - - -
25/09:19am 16.8 NNW 5 7 1004.0 - 0.2 - Partly cloudy 5 - - - -
25/09:00am 17.1 N 4 8 1004.2 - 4.0 Rain Cloudy 10 - - - -
25/08:49am 17.0 N 1 4 1004.4 - 3.8 - Partly cloudy 9 - - - -
25/08:30am 16.9 NNW 1 5 1004.6 - 3.8 - Partly cloudy 8 - - - -
25/08:00am 16.5 NE 7 10 1004.8 - 3.4 - Cloudy 10 - - - -
25/07:30am 16.2 ENE 5 7 1004.9 - 3.2 - Partly cloudy 10 - - - -
25/07:04am 15.6 CALM 0 0 1005.2 - 3.0 - Partly cloudy 7 - - - -
25/07:00am 15.6 CALM 0 0 1005.2 - 2.8 - Partly cloudy 7 - - - -
25/06:30am 15.5 E 4 5 1005.5 - 2.4 - Cloudy 4 - - - -
25/06:00am 15.6 ENE 4 5 1006.1 - 2.0 Recent precip. Cloudy 5 - - - -
25/05:30am 15.8 NNE 3 4 1006.7 - 1.8 - Partly cloudy 5 - - - -
25/05:00am 15.6 ENE 5 6 1006.9 - 1.2 - Partly cloudy 5 - - - -
25/04:30am 16.3 SSE 5 6 1007.4 - 0.8 - Partly cloudy 5 - - - -
25/04:16am 16.7 SSW 7 9 1007.9 - 0.4 - Partly cloudy 5 - - - -
25/04:00am 16.5 S 4 8 1007.7 - 0.0 - Cloudy 7 - - - -
25/03:30am 16.6 S 4 6 1007.9 - 0.0 - Cloudy 8 - - - -
25/03:27am 16.5 S 3 5 1008.0 - 0.0 - Cloudy 8 - - - -
25/03:11am 16.2 CALM 0 0 1008.4 - 0.0 - Partly cloudy 5 - - - -
25/03:00am 16.7 E 4 7 1008.4 - 0.0 - Cloudy 7 - - - -
25/02:30am 16.5 SE 1 5 1009.1 - 0.0 - - 9 - - - -
25/02:00am 17.4 WSW 1 6 1009.7 - 0.0 - Partly cloudy 10 - - - -
25/01:30am 17.3 E 1 5 1010.2 - 0.0 - Partly cloudy 10 - - - -
25/01:00am 15.6 ESE 1 4 1011.0 - 0.0 - Partly cloudy 9 - - - -
25/12:30am 14.2 ENE 2 4 1011.4 - 0.0 - Partly cloudy 9 - - - -
25/12:24am 13.9 ENE 3 5 1011.5 - 0.0 - Partly cloudy 10 - - - -
25/12:00am 13.0 ENE 3 5 1012.0 - 0.0 - Cloudy 4 - - - -
 
Date/Time
EST
Temp
°C
Wind Pressure Rain since
9am
mm
Weather Cloud Vis
km
Sea
Height
m
Swell
Dir  Spd
kts
Gust
kts
hPa Trend Height
m
Period
s
Dir
24/11:49pm 12.7 E 4 5 1012.2 - 0.0 - Partly cloudy 5 - - - -
24/11:48pm 12.9 E 4 5 1012.2 - 0.0 - Partly cloudy 6 - - - -
24/11:39pm 13.3 E 2 4 1012.4 - 0.0 - Partly cloudy 8 - - - -
24/11:31pm 13.5 E 4 5 1012.6 - 0.0 - Partly cloudy 5 - - - -
24/11:30pm 13.6 E 4 5 1012.6 - 0.0 - Partly cloudy 6 - - - -
24/11:13pm 14.4 E 1 3 1013.0 - 0.0 - Partly cloudy 10 - - - -
24/11:01pm 13.8 ENE 1 4 1013.2 - 0.0 - Partly cloudy 10 - - - -
24/11:00pm 13.1 E 1 4 1013.2 - 0.0 - Partly cloudy 10 - - - -
24/10:35pm 12.6 SE 2 5 1013.4 - 0.0 - Partly cloudy 4 - - - -
24/10:30pm 13.1 ESE 3 5 1013.5 - 0.0 - Partly cloudy 10 - - - -
24/10:28pm 13.2 ESE 2 5 1013.5 - 0.0 - Partly cloudy 10 - - - -
24/10:05pm 13.4 E 1 4 1014.0 - 0.0 - Partly cloudy 10 - - - -
24/10:00pm 13.1 ENE 3 4 1014.0 - 0.0 - Partly cloudy 10 - - - -
24/09:30pm 14.2 N 6 7 1014.4 - 0.0 - - 10 - - - -
24/09:00pm 15.0 CALM 0 3 1014.4 - 0.0 - Mostly cloudy 10 - - - -
24/08:30pm 15.7 CALM 0 0 1014.6 - 0.0 - - 10 - - - -
24/08:00pm 14.4 E 4 5 1014.4 - 0.0 - - 10 - - - -
24/07:30pm 14.9 ENE 4 5 1014.6 - 0.0 - Partly cloudy 10 - - - -
24/07:00pm 15.9 N 5 6 1014.9 - 0.0 - Partly cloudy 10 - - - -
24/06:30pm 16.8 NNW 4 5 1015.1 - 0.0 - Partly cloudy 10 - - - -
24/06:00pm 16.9 CALM 0 0 1015.1 - 0.0 - Partly cloudy 10 - - - -
24/05:54pm 16.9 NNW 1 3 1015.1 - 0.0 - Partly cloudy 10 - - - -
24/05:39pm 17.1 NW 1 4 1015.2 - 0.0 - Partly cloudy 10 - - - -
24/05:30pm 17.2 CALM 0 0 1015.3 - 0.0 - Partly cloudy 10 - - - -
24/05:00pm 17.9 WNW 4 5 1015.3 - 0.0 - Partly cloudy 10 - - - -
24/04:30pm 18.2 SW 5 6 1015.5 - 0.0 - Partly cloudy 10 - - - -
24/04:00pm 18.5 SSW 5 6 1015.5 - 0.0 - Partly cloudy 10 - - - -
24/03:30pm 18.9 SW 6 7 1015.7 - 0.0 - Partly cloudy 10 - - - -
24/03:00pm 19.5 SW 6 7 1015.8 - 0.0 - Mostly clear 10 - - - -
24/02:30pm 19.7 SW 6 7 1016.0 - 0.0 - - 10 - - - -
24/02:00pm 20.0 WSW 6 7 1016.0 - 0.0 - - 10 - - - -
24/01:30pm 20.5 WSW 7 8 1016.4 - 0.0 - Partly cloudy 10 - - - -
24/01:00pm 21.7 SW 5 6 1016.8 - 0.0 - Partly cloudy 10 - - - -
24/12:30pm 20.0 SW 5 6 1017.6 - 0.0 - - 10 - - - -
24/12:00pm 19.7 SW 6 7 1018.2 - 0.0 - Partly cloudy 10 - - - -
24/11:30am 19.6 SSW 7 8 1018.7 - 0.0 - Partly cloudy 10 - - - -
24/11:00am 19.6 SSE 4 6 1019.2 - 0.0 - Partly cloudy 10 - - - -
24/10:51am 19.7 ESE 4 6 1019.3 - 0.0 - Partly cloudy 10 - - - -
24/10:30am 19.1 SE 6 9 1019.5 - 0.0 - Partly cloudy 10 - - - -
24/10:27am 19.0 SE 6 9 1019.5 - 0.0 - Partly cloudy 10 - - - -
24/10:26am 19.0 SE 6 9 1019.5 - 0.0 - Partly cloudy 10 - - - -
24/10:11am 19.3 E 4 8 1019.6 - 0.0 - Partly cloudy 10 - - - -
24/10:00am 19.4 E 5 7 1019.7 - 0.0 - Partly cloudy 10 - - - -
24/09:30am 18.5 E 5 7 1020.1 - 0.0 - Cloudy 10 - - - -
24/09:00am 18.1 ESE 5 6 1020.3 - 0.0 - Cloudy 10 - - - -
24/08:30am 17.7 E 6 9 1020.7 - 0.0 - Cloudy 10 - - - -
24/08:00am 17.2 E 6 7 1020.7 - 0.0 - Partly cloudy 10 - - - -

Other Formats:

Comma delimited format used in spreadsheet applications
http://www.bom.gov.au/fwo/IDT60701/IDT60701.94980.axf

JavaScript Object Notation format (JSON) in row-major order
http://www.bom.gov.au/fwo/IDT60701/IDT60701.94980.json